Time;durP1;ratioP1;P1;durP2;ratioP2;P2;SDS_P1;SDS_P2;PMS_P1;PMS_P2;Temp;Humidity;BMP_temperature;BMP_pressure;BME280_temperature;BME280_humidity;BME280_pressure;Samples;Min_cycle;Max_cycle;Signal;HPM_P1;HPM_P2
2023/03/23 00:01:05;;;;;;;;;1.00;1.00;;;;;14.34;66.25;100186.09;5073832;28;45510;-69
2023/03/23 00:03:31;;;;;;;;;1.00;1.00;;;;;14.36;65.83;100193.25;5061410;27;45510;-68
2023/03/23 00:06:05;;;;;;;;;0.33;0.33;;;;;14.31;65.82;100192.34;5063723;27;45465;-69
2023/03/23 00:08:33;;;;;;;;;1.00;1.00;;;;;14.35;65.92;100201.31;5065170;27;46895;-68
2023/03/23 00:11:01;;;;;;;;;2.00;2.00;;;;;14.32;65.29;100186.09;5063582;28;45495;-68
2023/03/23 00:13:28;;;;;;;;;5.00;2.00;;;;;14.38;65.51;100188.75;5062389;28;45454;-70
2023/03/23 00:15:53;;;;;;;;;2.00;2.00;;;;;14.36;65.09;100195.03;5062928;28;45863;-69
2023/03/23 00:18:22;;;;;;;;;1.00;1.00;;;;;14.34;65.14;100175.34;5063589;28;46167;-69
2023/03/23 00:20:56;;;;;;;;;1.67;1.67;;;;;14.32;64.74;100178.03;5058709;28;45469;-71
2023/03/23 00:23:24;;;;;;;;;1.33;1.00;;;;;14.29;64.61;100169.06;5062660;28;46133;-67
2023/03/23 00:25:58;;;;;;;;;1.00;1.00;;;;;14.28;64.84;100167.25;5059470;28;45420;-70
2023/03/23 00:28:26;;;;;;;;;1.00;1.00;;;;;14.24;64.81;100174.44;5059450;27;45441;-70
2023/03/23 00:31:02;;;;;;;;;0.33;0.33;;;;;14.31;64.79;100180.72;5061732;27;45634;-69
2023/03/23 00:33:33;;;;;;;;;2.00;1.00;;;;;14.28;64.40;100175.31;5061308;28;45497;-68
2023/03/23 00:35:59;;;;;;;;;1.00;1.00;;;;;14.28;64.56;100183.38;5067485;28;45575;-68
2023/03/23 00:38:25;;;;;;;;;1.00;1.00;;;;;14.26;64.54;100163.69;5068309;28;45975;-69
2023/03/23 00:40:52;;;;;;;;;0.67;0.67;;;;;14.29;64.26;100169.06;5064915;27;45537;-69
2023/03/23 00:43:19;;;;;;;;;1.33;0.33;;;;;14.24;64.45;100157.38;5063682;27;45465;-68
2023/03/23 00:45:52;;;;;;;;;1.33;1.00;;;;;14.26;64.26;100175.31;5062232;28;45556;-69
2023/03/23 00:48:20;;;;;;;;;1.33;1.00;;;;;14.25;64.34;100175.31;5068693;27;47381;-69
2023/03/23 00:50:46;;;;;;;;;1.67;1.67;;;;;14.23;64.39;100164.56;5056530;28;45655;-69
2023/03/23 00:53:11;;;;;;;;;1.00;1.00;;;;;14.17;64.54;100135.91;5065352;28;45505;-69
2023/03/23 00:55:37;;;;;;;;;4.33;1.00;;;;;14.16;64.36;100139.47;5067540;28;45241;-69
2023/03/23 00:58:02;;;;;;;;;2.00;2.00;;;;;14.28;64.12;100154.72;5067930;28;45717;-70
2023/03/23 01:00:27;;;;;;;;;1.00;1.00;;;;;14.27;64.31;100158.31;5066834;28;45311;-68
2023/03/23 01:02:54;;;;;;;;;1.67;1.33;;;;;14.23;64.65;100150.25;5069778;28;45508;-68
2023/03/23 01:05:20;;;;;;;;;1.33;1.00;;;;;14.27;64.35;100171.75;5066354;28;47000;-68
2023/03/23 01:07:46;;;;;;;;;2.67;2.00;;;;;14.25;64.82;100164.56;5068556;27;47217;-70
2023/03/23 01:10:15;;;;;;;;;4.00;2.33;;;;;14.24;64.86;100152.00;5061328;28;45393;-70
2023/03/23 01:12:42;;;;;;;;;2.00;2.00;;;;;14.25;64.67;100175.31;5065638;28;45476;-68
2023/03/23 01:15:08;;;;;;;;;1.00;1.00;;;;;14.23;65.18;100172.63;5066079;28;45368;-70
2023/03/23 01:17:33;;;;;;;;;1.00;1.00;;;;;14.23;65.02;100161.88;5065032;27;45536;-67
2023/03/23 01:19:59;;;;;;;;;1.00;1.00;;;;;14.25;64.96;100160.06;5065008;28;58595;-69
2023/03/23 01:22:24;;;;;;;;;1.33;1.33;;;;;14.27;65.13;100138.59;5064468;28;45437;-70
2023/03/23 01:24:50;;;;;;;;;3.00;1.00;;;;;14.27;64.97;100144.88;5063958;27;45430;-69
2023/03/23 01:27:15;;;;;;;;;1.00;1.00;;;;;14.24;65.52;100152.94;5066307;28;46246;-70
2023/03/23 01:29:40;;;;;;;;;2.33;2.00;;;;;14.10;65.82;100138.56;5060354;27;45541;-69
2023/03/23 01:32:06;;;;;;;;;1.00;1.00;;;;;14.18;66.19;100144.84;5065510;27;45554;-70
2023/03/23 01:34:31;;;;;;;;;3.00;1.00;;;;;14.23;65.93;100155.63;5066465;28;45575;-69
2023/03/23 01:36:57;;;;;;;;;2.00;2.00;;;;;14.23;65.67;100135.00;5065985;28;45682;-69
2023/03/23 01:39:22;;;;;;;;;2.33;2.00;;;;;14.23;65.59;100143.06;5066749;28;45426;-69
2023/03/23 01:41:47;;;;;;;;;1.67;1.00;;;;;14.19;65.77;100130.53;5061644;27;45425;-69
2023/03/23 01:44:15;;;;;;;;;1.33;0.67;;;;;14.16;66.23;100138.59;5066544;27;45534;-69
2023/03/23 01:46:41;;;;;;;;;2.00;2.00;;;;;14.01;65.45;100115.28;5058689;28;45875;-69
2023/03/23 01:49:18;;;;;;;;;1.00;1.00;;;;;14.13;65.86;100114.41;5064967;27;45476;-69
2023/03/23 01:51:49;;;;;;;;;1.00;1.00;;;;;14.14;65.68;100108.16;5062473;28;45634;-68
2023/03/23 01:54:20;;;;;;;;;3.67;2.00;;;;;14.13;65.64;100107.22;5057664;28;45312;-69
2023/03/23 01:56:59;;;;;;;;;1.33;1.00;;;;;14.04;65.74;100076.75;5068929;27;46100;-69
2023/03/23 01:59:27;;;;;;;;;5.00;2.00;;;;;14.07;65.29;100080.34;5061614;28;45354;-68
2023/03/23 02:01:54;;;;;;;;;3.00;1.00;;;;;14.23;65.20;100094.69;5080231;27;45286;-68
2023/03/23 02:04:21;;;;;;;;;2.67;1.67;;;;;14.11;64.99;100071.41;5059072;28;45549;-68
2023/03/23 02:06:47;;;;;;;;;1.00;1.00;;;;;14.22;65.12;100089.31;5058563;27;46878;-68
2023/03/23 02:09:19;;;;;;;;;1.00;1.00;;;;;14.21;65.03;100099.19;5058793;28;45578;-68
2023/03/23 02:11:46;;;;;;;;;1.33;0.67;;;;;14.19;65.25;100096.50;5057641;27;45480;-68
2023/03/23 02:14:13;;;;;;;;;1.00;1.00;;;;;14.24;65.51;100103.66;5065318;27;45722;-68
2023/03/23 02:17:07;;;;;;;;;1.33;1.00;;;;;14.23;64.98;100116.19;5062221;28;46644;-68
2023/03/23 02:20:07;;;;;;;;;1.00;1.00;;;;;14.25;65.23;100135.00;5058335;28;45507;-70
2023/03/23 02:22:41;;;;;;;;;1.00;1.00;;;;;14.24;65.14;100135.88;5072130;28;46090;-68
2023/03/23 02:25:23;;;;;;;;;3.00;1.00;;;;;14.24;65.43;100158.31;5070128;28;45464;-68
2023/03/23 02:28:26;;;;;;;;;1.33;1.33;;;;;14.18;65.43;100147.53;5066688;27;46238;-68
2023/03/23 02:31:07;;;;;;;;;1.00;1.00;;;;;14.19;65.63;100146.66;5066252;28;45556;-70
2023/03/23 02:33:38;;;;;;;;;1.00;1.00;;;;;14.19;65.01;100155.59;5063173;28;45493;-68
2023/03/23 02:36:35;;;;;;;;;0.00;0.00;;;;;14.14;65.25;100149.31;5069809;27;45452;-69
2023/03/23 02:39:05;;;;;;;;;3.00;1.00;;;;;14.13;65.62;100152.00;5055247;28;45565;-69
2023/03/23 02:41:39;;;;;;;;;4.00;1.00;;;;;14.15;65.14;100159.16;5063658;28;45548;-70
2023/03/23 02:44:07;;;;;;;;;1.00;1.00;;;;;14.14;65.05;100149.31;5058917;27;45570;-68
2023/03/23 02:46:34;;;;;;;;;2.33;2.00;;;;;14.15;64.86;100150.22;5062884;28;45466;-69
2023/03/23 02:49:03;;;;;;;;;3.67;1.67;;;;;13.91;64.79;100106.31;5063293;28;46340;-67
2023/03/23 02:51:29;;;;;;;;;1.67;1.67;;;;;14.05;64.61;100133.19;5069995;27;45741;-67
2023/03/23 02:53:56;;;;;;;;;2.00;0.33;;;;;14.11;64.56;100143.06;5063779;28;45433;-69
2023/03/23 02:56:27;;;;;;;;;0.67;0.00;;;;;14.07;64.73;100123.31;5066022;28;45334;-68
2023/03/23 02:58:53;;;;;;;;;2.00;2.00;;;;;14.06;64.60;100132.28;5061510;27;46326;-70
2023/03/23 03:01:33;;;;;;;;;1.33;1.33;;;;;14.09;65.04;100129.63;5072807;28;45298;-68
2023/03/23 03:04:14;;;;;;;;;1.00;1.00;;;;;14.11;64.64;100129.63;5071134;28;45424;-67
2023/03/23 03:07:07;;;;;;;;;1.00;1.00;;;;;14.10;64.41;100126.03;5067362;28;45400;-70
2023/03/23 03:09:51;;;;;;;;;2.67;0.00;;;;;14.05;64.81;100114.38;5031832;28;47038;-68
2023/03/23 03:12:35;;;;;;;;;3.00;1.67;;;;;13.93;65.02;100083.03;5063496;28;45490;-69
2023/03/23 03:15:10;;;;;;;;;1.00;1.00;;;;;14.09;64.86;100118.88;5067717;28;45517;-69
2023/03/23 03:17:45;;;;;;;;;2.00;1.67;;;;;14.00;64.85;100078.56;5066267;28;45553;-69
2023/03/23 03:20:13;;;;;;;;;2.00;0.33;;;;;14.00;65.00;100094.66;5066119;28;46363;-68
2023/03/23 03:22:43;;;;;;;;;1.33;1.33;;;;;14.09;64.96;100121.56;5062939;28;45519;-68
2023/03/23 03:25:15;;;;;;;;;1.00;1.00;;;;;14.13;64.63;100112.59;5068769;28;45649;-67
2023/03/23 03:27:45;;;;;;;;;1.33;1.00;;;;;14.12;65.18;100117.97;5062797;28;45670;-70
2023/03/23 03:30:14;;;;;;;;;0.33;0.00;;;;;14.03;65.01;100101.84;5070180;28;46733;-70
2023/03/23 03:32:53;;;;;;;;;1.00;1.00;;;;;14.09;65.37;100108.13;5063158;28;45542;-67
2023/03/23 03:35:21;;;;;;;;;1.00;1.00;;;;;14.11;65.19;100130.50;5069293;28;45307;-69
2023/03/23 03:37:47;;;;;;;;;1.00;1.00;;;;;14.12;65.11;100126.94;5067414;28;45637;-68
2023/03/23 03:40:16;;;;;;;;;1.33;1.33;;;;;14.06;64.99;100108.13;5071178;27;45452;-68
2023/03/23 03:42:44;;;;;;;;;3.67;2.00;;;;;14.09;65.23;100118.88;5065191;28;45428;-69
2023/03/23 03:45:12;;;;;;;;;1.00;1.00;;;;;14.08;65.52;100116.19;5067519;28;45695;-69
2023/03/23 03:47:38;;;;;;;;;4.00;3.00;;;;;14.08;65.69;100118.88;5063597;27;45580;-69
2023/03/23 03:50:04;;;;;;;;;1.00;1.00;;;;;14.04;65.48;100106.31;5062437;27;45941;-69
2023/03/23 03:52:29;;;;;;;;;1.00;1.00;;;;;14.12;65.86;100117.97;5072360;27;45553;-69
2023/03/23 03:54:56;;;;;;;;;1.33;1.00;;;;;14.04;66.23;100091.13;5067782;28;45733;-67
2023/03/23 03:57:22;;;;;;;;;0.33;0.33;;;;;14.12;66.28;100108.13;5063617;28;45771;-69
2023/03/23 03:59:47;;;;;;;;;3.33;1.33;;;;;14.14;66.21;100102.78;5060775;28;45667;-69
2023/03/23 04:02:19;;;;;;;;;1.00;1.00;;;;;14.09;66.52;100097.38;5069530;28;45498;-69
2023/03/23 04:04:48;;;;;;;;;1.00;1.00;;;;;13.74;66.13;100044.53;5067927;28;45355;-70
2023/03/23 04:07:15;;;;;;;;;2.33;1.00;;;;;13.93;66.58;100093.75;5073548;28;45456;-69
2023/03/23 04:09:43;;;;;;;;;1.00;1.00;;;;;14.06;66.78;100128.72;5069445;28;46655;-68
2023/03/23 04:12:08;;;;;;;;;1.00;1.00;;;;;14.06;66.65;100126.94;5064802;28;45335;-69
2023/03/23 04:14:34;;;;;;;;;2.00;2.00;;;;;14.06;66.88;100121.56;5067766;28;45348;-69
2023/03/23 04:16:59;;;;;;;;;8.33;2.00;;;;;14.05;67.01;100122.44;5056802;27;45441;-68
2023/03/23 04:19:27;;;;;;;;;3.33;1.00;;;;;14.01;66.78;100116.16;5057251;28;45862;-69
2023/03/23 04:21:54;;;;;;;;;1.00;1.00;;;;;13.97;67.13;100118.84;5062806;28;45430;-68
2023/03/23 04:24:21;;;;;;;;;1.00;1.00;;;;;14.00;66.92;100129.59;5068319;27;45371;-67
2023/03/23 04:26:47;;;;;;;;;1.00;1.00;;;;;14.04;67.13;100141.22;5065149;28;45707;-68
2023/03/23 04:29:12;;;;;;;;;2.00;2.00;;;;;14.05;66.64;100132.28;5070195;28;46123;-70
2023/03/23 04:31:38;;;;;;;;;2.00;1.00;;;;;14.05;66.70;100140.34;5067641;28;45535;-69
2023/03/23 04:34:04;;;;;;;;;2.00;2.00;;;;;13.93;66.56;100136.72;5067321;27;45503;-69
2023/03/23 04:36:29;;;;;;;;;3.33;2.00;;;;;14.07;66.65;100163.63;5063419;28;45397;-68
2023/03/23 04:38:55;;;;;;;;;1.00;1.00;;;;;13.83;66.55;100105.38;5064158;28;45450;-69
2023/03/23 04:41:24;;;;;;;;;2.00;2.00;;;;;14.07;66.34;100151.97;5064837;28;45527;-68
2023/03/23 04:43:52;;;;;;;;;3.67;2.00;;;;;13.97;66.33;100133.19;5071023;27;45492;-68
2023/03/23 04:46:19;;;;;;;;;1.00;1.00;;;;;14.07;66.49;100160.94;5067116;28;45487;-68
2023/03/23 04:48:45;;;;;;;;;0.00;0.00;;;;;14.08;65.73;100161.84;5058464;27;45657;-69
2023/03/23 04:51:12;;;;;;;;;1.33;1.33;;;;;14.09;65.93;100155.56;5066718;28;45602;-69
2023/03/23 04:53:38;;;;;;;;;1.00;1.00;;;;;14.00;66.28;100133.16;5081048;27;44991;-69
2023/03/23 04:56:03;;;;;;;;;2.00;2.00;;;;;14.08;65.87;100141.25;5076554;27;45645;-69
2023/03/23 04:58:33;;;;;;;;;2.33;2.33;;;;;14.12;65.62;100148.44;5060698;27;45459;-69
2023/03/23 05:00:59;;;;;;;;;2.33;2.33;;;;;14.13;66.23;100149.31;5060385;28;45236;-69
2023/03/23 05:03:26;;;;;;;;;2.00;1.00;;;;;14.13;66.01;100163.63;5064367;27;45483;-69
2023/03/23 05:05:53;;;;;;;;;2.67;1.67;;;;;14.05;65.75;100145.72;5060676;28;48286;-69
2023/03/23 05:08:24;;;;;;;;;3.67;2.00;;;;;14.08;65.56;100140.34;5062249;28;45529;-67
2023/03/23 05:10:52;;;;;;;;;2.33;1.00;;;;;14.10;65.81;100144.81;5057261;28;45401;-69
2023/03/23 05:13:17;;;;;;;;;1.67;1.00;;;;;14.12;65.49;100152.88;5074543;27;45450;-68
2023/03/23 05:15:42;;;;;;;;;1.67;1.67;;;;;14.05;65.57;100146.59;5064112;27;45842;-69
2023/03/23 05:18:09;;;;;;;;;2.00;1.00;;;;;14.07;65.41;100151.97;5062868;28;45568;-69
2023/03/23 05:20:34;;;;;;;;;2.00;2.00;;;;;13.98;65.63;100134.94;5062632;27;45472;-68
2023/03/23 05:23:00;;;;;;;;;2.00;1.67;;;;;13.95;65.56;100136.75;5068979;28;45388;-69
2023/03/23 05:25:26;;;;;;;;;2.00;2.00;;;;;14.00;65.43;100149.28;5067994;28;45484;-69
2023/03/23 05:27:52;;;;;;;;;1.00;1.00;;;;;13.96;65.75;100143.91;5067510;27;45493;-69
2023/03/23 05:30:20;;;;;;;;;4.00;2.00;;;;;13.93;65.58;100138.53;5065712;28;45464;-68
2023/03/23 05:32:50;;;;;;;;;3.00;2.00;;;;;13.95;66.19;100164.47;5057165;28;45561;-69
2023/03/23 05:35:17;;;;;;;;;2.00;1.00;;;;;13.86;66.53;100139.38;5074709;28;46111;-68
2023/03/23 05:37:43;;;;;;;;;1.33;1.33;;;;;13.93;66.45;100160.00;5064662;27;45635;-68
2023/03/23 05:40:11;;;;;;;;;2.33;2.33;;;;;13.91;66.70;100162.69;5058118;28;45574;-69
2023/03/23 05:42:39;;;;;;;;;1.00;1.00;;;;;13.86;67.06;100164.47;5064592;28;45608;-67
2023/03/23 05:45:05;;;;;;;;;1.00;1.00;;;;;13.84;67.31;100166.22;5060017;28;45429;-68
2023/03/23 05:47:31;;;;;;;;;1.00;1.00;;;;;13.82;68.12;100157.28;5066775;28;46103;-67
2023/03/23 05:49:57;;;;;;;;;3.00;2.00;;;;;13.78;68.22;100158.19;5070323;27;45500;-68
2023/03/23 05:52:24;;;;;;;;;1.00;1.00;;;;;13.78;68.35;100150.13;5070036;28;45436;-67
2023/03/23 05:54:49;;;;;;;;;1.00;1.00;;;;;13.78;68.40;100151.00;5062947;28;45484;-67
2023/03/23 05:57:15;;;;;;;;;2.33;2.00;;;;;13.80;68.48;100154.59;5056409;27;46128;-68
2023/03/23 05:59:41;;;;;;;;;3.33;1.00;;;;;13.67;68.76;100133.97;5062474;28;45453;-68
2023/03/23 06:02:06;;;;;;;;;2.00;2.00;;;;;13.77;68.48;100151.88;5054736;28;45605;-69
2023/03/23 06:04:33;;;;;;;;;1.00;1.00;;;;;13.41;68.63;100081.09;5066502;28;45600;-69
2023/03/23 06:07:00;;;;;;;;;1.00;1.00;;;;;13.75;68.86;100153.69;5058577;27;46616;-68
2023/03/23 06:09:26;;;;;;;;;2.33;2.00;;;;;13.70;69.50;100143.81;5064675;28;45433;-68
2023/03/23 06:11:51;;;;;;;;;1.00;1.00;;;;;13.72;69.82;100156.34;5064840;27;45438;-69
2023/03/23 06:14:17;;;;;;;;;3.00;1.67;;;;;13.75;69.41;100167.09;5069566;27;45636;-68
2023/03/23 06:16:42;;;;;;;;;1.00;1.00;;;;;13.77;69.46;100161.75;5071904;28;46045;-68
2023/03/23 06:19:08;;;;;;;;;1.00;1.00;;;;;13.78;69.20;100158.19;5071228;27;45549;-67
2023/03/23 06:21:34;;;;;;;;;5.00;1.33;;;;;13.79;69.37;100165.31;5057720;28;45536;-67
2023/03/23 06:23:59;;;;;;;;;2.00;1.00;;;;;13.69;69.83;100147.38;5057007;28;45536;-70
2023/03/23 06:26:32;;;;;;;;;3.00;2.00;;;;;13.81;70.01;100169.81;5066392;28;46099;-68
2023/03/23 06:28:57;;;;;;;;;0.67;0.67;;;;;13.83;69.50;100161.78;5066381;28;45519;-67
2023/03/23 06:31:26;;;;;;;;;24.50;23.00;;;;;13.79;70.18;100160.88;5055748;28;45490;-68
2023/03/23 06:33:51;;;;;;;;;2.00;2.00;;;;;13.78;68.87;100156.38;5070619;28;45376;-69
2023/03/23 06:36:17;;;;;;;;;1.00;1.00;;;;;13.69;68.68;100145.59;5078476;28;45514;-69
2023/03/23 06:38:42;;;;;;;;;2.67;2.67;;;;;13.63;68.81;100137.53;5075830;28;45493;-69
2023/03/23 06:41:08;;;;;;;;;3.33;2.67;;;;;13.65;69.32;100141.13;5074506;28;45019;-68
2023/03/23 06:43:36;;;;;;;;;6.33;3.00;;;;;13.80;69.34;100177.88;5078981;28;45213;-70
2023/03/23 06:46:01;;;;;;;;;3.00;1.33;;;;;13.79;68.56;100171.59;5082558;28;46086;-70
2023/03/23 06:48:27;;;;;;;;;3.67;2.00;;;;;13.89;69.08;100196.72;5079885;28;45099;-68
2023/03/23 06:50:53;;;;;;;;;2.67;1.67;;;;;13.90;68.92;100201.16;5082109;27;45158;-71
2023/03/23 06:53:20;;;;;;;;;2.00;2.00;;;;;13.92;69.11;100203.88;5077508;28;45393;-68
2023/03/23 06:55:46;;;;;;;;;1.67;1.67;;;;;13.93;68.98;100202.97;5077784;28;46112;-69
2023/03/23 06:58:12;;;;;;;;;4.00;4.00;;;;;13.92;69.39;100212.81;5073812;28;45030;-69
2023/03/23 07:00:38;;;;;;;;;2.00;2.00;;;;;13.95;69.18;100223.56;5070046;28;45273;-67
2023/03/23 07:03:04;;;;;;;;;3.00;3.00;;;;;13.97;69.20;100215.53;5079271;28;45036;-70
2023/03/23 07:05:30;;;;;;;;;1.00;1.00;;;;;13.92;69.43;100203.88;5090374;28;45439;-69
2023/03/23 07:07:56;;;;;;;;;6.00;4.67;;;;;13.99;68.91;100216.41;5076263;27;45431;-70
2023/03/23 07:10:21;;;;;;;;;4.00;3.00;;;;;13.99;69.18;100225.38;5075056;27;45497;-67
2023/03/23 07:12:47;;;;;;;;;3.33;3.00;;;;;13.96;69.43;100211.94;5074895;28;46293;-69
2023/03/23 07:15:12;;;;;;;;;4.33;3.00;;;;;13.97;68.87;100220.88;5069851;28;45539;-69
2023/03/23 07:17:39;;;;;;;;;5.00;3.33;;;;;13.97;69.42;100221.81;5076290;28;45425;-70
2023/03/23 07:20:06;;;;;;;;;6.00;5.67;;;;;13.99;69.36;100211.03;5074764;28;45435;-70
2023/03/23 07:22:32;;;;;;;;;3.00;3.00;;;;;14.01;68.82;100209.28;5075864;28;45394;-69
2023/03/23 07:24:57;;;;;;;;;3.00;3.00;;;;;14.04;69.10;100224.50;5075509;27;46496;-72
2023/03/23 07:27:23;;;;;;;;;4.00;3.00;;;;;13.98;68.72;100215.53;5070384;27;45357;-70
2023/03/23 07:29:48;;;;;;;;;3.67;2.67;;;;;14.03;67.96;100218.22;5076195;27;45463;-71
2023/03/23 07:32:14;;;;;;;;;5.00;3.00;;;;;14.03;67.98;100211.97;5071828;27;45471;-73
2023/03/23 07:34:41;;;;;;;;;4.33;3.00;;;;;14.09;68.28;100215.56;5069461;28;45765;-71
2023/03/23 07:37:07;;;;;;;;;6.33;5.00;;;;;14.09;68.00;100218.25;5076886;27;45557;-71
2023/03/23 07:39:33;;;;;;;;;11.67;9.67;;;;;14.14;67.78;100221.84;5074722;27;45414;-73
2023/03/23 07:41:58;;;;;;;;;6.00;6.00;;;;;14.24;67.62;100216.50;5073636;28;45497;-70
2023/03/23 07:44:24;;;;;;;;;4.67;3.00;;;;;14.21;66.85;100211.13;5075185;27;45456;-72
2023/03/23 07:46:50;;;;;;;;;9.00;8.00;;;;;14.30;66.82;100238.03;5074836;28;45408;-71
2023/03/23 07:49:17;;;;;;;;;13.33;13.33;;;;;14.30;66.90;100229.94;5075292;27;45545;-71
2023/03/23 07:51:42;;;;;;;;;6.00;3.33;;;;;14.30;66.58;100246.06;5073756;28;45352;-72
2023/03/23 07:54:08;;;;;;;;;4.67;3.67;;;;;14.29;66.58;100242.50;5074786;28;45989;-72
2023/03/23 07:56:35;;;;;;;;;6.67;4.67;;;;;14.31;66.51;100221.91;5075245;28;45543;-71
2023/03/23 07:59:00;;;;;;;;;5.00;5.00;;;;;14.34;66.33;100229.97;5073651;28;45620;-71
2023/03/23 08:01:26;;;;;;;;;4.33;3.00;;;;;14.35;66.14;100238.91;5069846;27;45441;-71
2023/03/23 08:03:51;;;;;;;;;3.33;3.33;;;;;14.34;64.96;100239.84;5060310;28;48025;-70
2023/03/23 08:06:17;;;;;;;;;4.67;2.67;;;;;14.35;64.54;100237.16;5073277;28;45282;-71
2023/03/23 08:08:42;;;;;;;;;3.67;3.00;;;;;14.30;64.61;100230.84;5064297;27;45640;-72
2023/03/23 08:11:08;;;;;;;;;2.00;2.00;;;;;14.37;64.48;100234.47;5073210;28;45398;-71
2023/03/23 08:13:34;;;;;;;;;0.33;0.33;;;;;14.32;64.85;100231.78;5077148;27;46141;-70
2023/03/23 08:16:03;;;;;;;;;5.67;4.00;;;;;14.26;64.37;100217.41;5072235;28;45354;-72
2023/03/23 08:18:29;;;;;;;;;7.00;6.00;;;;;14.28;64.31;100215.63;5072238;28;45624;-71
2023/03/23 08:20:54;;;;;;;;;2.33;2.33;;;;;14.48;63.99;100239.84;5074118;28;45376;-72
2023/03/23 08:23:20;;;;;;;;;5.67;3.00;;;;;14.53;64.18;100249.72;5066560;28;47901;-70
2023/03/23 08:25:46;;;;;;;;;3.00;3.00;;;;;14.51;63.78;100232.69;5061044;27;45583;-71
2023/03/23 08:28:13;;;;;;;;;6.33;3.33;;;;;14.46;63.77;100242.53;5067772;27;45456;-71
2023/03/23 08:30:39;;;;;;;;;7.67;3.67;;;;;14.59;63.24;100256.03;5061304;28;45447;-72
2023/03/23 08:33:06;;;;;;;;;4.00;3.00;;;;;14.49;63.18;100236.28;5074036;27;45591;-70
2023/03/23 08:35:32;;;;;;;;;2.67;2.67;;;;;14.52;63.05;100238.97;5066929;27;45355;-73
2023/03/23 08:37:58;;;;;;;;;3.67;3.33;;;;;14.65;62.80;100250.66;5064129;27;45394;-71
2023/03/23 08:40:24;;;;;;;;;4.33;3.00;;;;;14.69;62.64;100257.88;5068565;27;45660;-70
2023/03/23 08:42:51;;;;;;;;;5.00;4.00;;;;;14.73;62.68;100260.56;5067480;28;48366;-70
2023/03/23 08:45:23;;;;;;;;;6.00;3.00;;;;;14.77;62.48;100257.88;5069302;27;45497;-69
2023/03/23 08:47:51;;;;;;;;;2.33;2.33;;;;;14.81;62.26;100246.22;5061699;28;45391;-71
2023/03/23 08:50:22;;;;;;;;;4.00;4.00;;;;;14.77;61.90;100250.69;5074885;27;45465;-70
2023/03/23 08:52:49;;;;;;;;;3.00;2.33;;;;;14.81;62.04;100252.47;5073957;27;47052;-71
2023/03/23 08:55:15;;;;;;;;;2.00;2.00;;;;;14.89;61.75;100260.56;5066511;28;45446;-71
2023/03/23 08:57:42;;;;;;;;;5.67;4.00;;;;;14.77;60.97;100239.06;5072999;28;45088;-71
2023/03/23 09:00:16;;;;;;;;;7.67;5.67;;;;;14.85;61.35;100246.22;5088146;27;45117;-72
2023/03/23 09:02:42;;;;;;;;;4.00;2.33;;;;;14.82;60.99;100221.13;5068798;27;46338;-71
2023/03/23 09:05:10;;;;;;;;;2.00;2.00;;;;;14.89;60.75;100250.69;5058257;27;45672;-70
2023/03/23 09:07:37;;;;;;;;;1.00;1.00;;;;;14.77;60.89;100239.06;5064845;27;45459;-71
2023/03/23 09:10:03;;;;;;;;;4.67;2.00;;;;;14.72;60.68;100244.44;5059344;27;45490;-71
2023/03/23 09:12:29;;;;;;;;;3.00;3.00;;;;;14.88;60.59;100282.97;5068530;27;47672;-71
2023/03/23 09:14:55;;;;;;;;;7.33;3.00;;;;;14.88;60.79;100280.28;5079459;27;45335;-72
2023/03/23 09:17:20;;;;;;;;;4.67;3.00;;;;;14.80;60.77;100269.53;5081421;27;45165;-71
2023/03/23 09:19:46;;;;;;;;;5.00;3.67;;;;;14.86;60.67;100268.63;5080297;28;45158;-71
2023/03/23 09:22:11;;;;;;;;;3.67;3.00;;;;;14.68;60.32;100210.34;5077644;28;61732;-71
2023/03/23 09:24:37;;;;;;;;;2.33;2.33;;;;;14.92;60.41;100229.19;5084657;27;44986;-70
2023/03/23 09:27:03;;;;;;;;;5.33;3.00;;;;;15.10;59.81;100255.19;5100291;27;45253;-73
2023/03/23 09:29:28;;;;;;;;;6.00;3.33;;;;;15.18;59.82;100254.28;5077926;28;45315;-68
2023/03/23 09:31:55;;;;;;;;;5.33;4.00;;;;;15.22;59.75;100248.03;5063388;27;45939;-72
2023/03/23 09:34:21;;;;;;;;;7.67;4.67;;;;;15.27;59.10;100248.91;5065430;28;45531;-69
2023/03/23 09:36:48;;;;;;;;;11.67;7.67;;;;;15.17;59.23;100221.09;5069280;27;45524;-71
2023/03/23 09:39:13;;;;;;;;;6.00;4.00;;;;;15.39;58.72;100269.53;5067329;28;45541;-76
2023/03/23 09:42:31;;;;;;;;;3.33;3.33;;;;;15.43;58.72;100274.91;5062935;27;46138;-73
2023/03/23 09:45:26;;;;;;;;;3.00;3.00;;;;;15.57;58.60;100261.41;5017591;27;45800;-72
2023/03/23 09:47:58;;;;;;;;;6.67;3.67;;;;;15.64;57.89;100267.69;5057745;28;45320;-68
2023/03/23 09:50:31;;;;;;;;;5.67;4.00;;;;;15.67;57.54;100281.16;5058841;27;45616;-70
2023/03/23 09:53:12;;;;;;;;;5.00;3.00;;;;;15.65;57.58;100286.53;5069670;28;45325;-68
2023/03/23 09:55:37;;;;;;;;;3.00;3.00;;;;;15.67;57.30;100275.75;5061862;27;45594;-68
2023/03/23 09:58:26;;;;;;;;;3.67;2.33;;;;;15.68;57.60;100263.22;5065705;27;45295;-69
2023/03/23 10:00:52;;;;;;;;;4.33;4.33;;;;;15.81;57.28;100273.97;5067346;27;45419;-67
2023/03/23 10:03:27;;;;;;;;;5.67;4.00;;;;;15.89;57.33;100262.25;5068533;28;46282;-66
2023/03/23 10:05:54;;;;;;;;;5.00;2.67;;;;;15.98;56.35;100265.81;5072296;28;46029;-74
2023/03/23 10:08:32;;;;;;;;;3.00;2.33;;;;;15.94;55.96;100247.00;5086354;27;45306;-68
2023/03/23 10:11:04;;;;;;;;;4.33;3.00;;;;;15.99;56.09;100251.47;5059067;27;45620;-67
2023/03/23 10:13:45;;;;;;;;;2.00;2.00;;;;;16.05;56.68;100247.84;5071643;28;47011;-68
2023/03/23 10:16:19;;;;;;;;;3.67;1.67;;;;;16.12;55.96;100249.63;5067492;28;45479;-69
2023/03/23 10:18:52;;;;;;;;;3.67;3.33;;;;;16.18;56.27;100243.28;5064526;28;45627;-71
2023/03/23 10:21:22;;;;;;;;;2.67;2.67;;;;;16.25;55.69;100247.78;5063599;27;45459;-70
2023/03/23 10:24:05;;;;;;;;;3.67;1.67;;;;;16.24;55.80;100248.66;5063175;28;46148;-69
2023/03/23 10:27:00;;;;;;;;;2.33;2.33;;;;;16.34;54.69;100263.88;5072477;27;45511;-71
2023/03/23 10:29:43;;;;;;;;;3.00;2.33;;;;;16.44;55.06;100256.66;5068408;28;45793;-71
2023/03/23 10:32:11;;;;;;;;;5.00;4.00;;;;;16.47;54.66;100239.56;5065761;28;45267;-67
2023/03/23 10:34:54;;;;;;;;;2.67;2.67;;;;;16.38;54.21;100214.44;5078541;27;45713;-69
2023/03/23 10:37:25;;;;;;;;;4.33;3.00;;;;;16.49;54.53;100248.53;5066845;28;46740;-70
2023/03/23 10:39:56;;;;;;;;;3.00;2.33;;;;;16.50;54.12;100258.41;5062821;28;45655;-69
2023/03/23 10:42:28;;;;;;;;;4.00;2.33;;;;;16.42;54.66;100261.16;5073831;28;45560;-68
2023/03/23 10:44:56;;;;;;;;;2.67;2.67;;;;;16.51;54.12;100252.09;5061713;28;46285;-69
2023/03/23 10:47:22;;;;;;;;;4.33;3.67;;;;;16.45;54.11;100235.97;5060818;28;45399;-67
2023/03/23 10:49:49;;;;;;;;;6.67;3.67;;;;;16.58;53.69;100259.25;5075401;28;45507;-66
2023/03/23 10:52:36;;;;;;;;;2.33;2.00;;;;;16.63;53.32;100270.94;5072358;27;45598;-72
2023/03/23 10:55:15;;;;;;;;;8.33;4.00;;;;;16.68;53.17;100254.69;5056653;28;45964;-69
2023/03/23 10:57:45;;;;;;;;;5.00;3.33;;;;;16.81;52.92;100256.41;5069492;28;45733;-69
2023/03/23 11:00:14;;;;;;;;;5.00;2.67;;;;;16.91;53.27;100249.16;5062040;27;45472;-68
2023/03/23 11:02:43;;;;;;;;;3.00;3.00;;;;;17.02;52.05;100239.19;5060485;28;45346;-68
2023/03/23 11:05:26;;;;;;;;;5.00;2.00;;;;;17.06;52.41;100246.38;5060533;28;47104;-68
2023/03/23 11:07:57;;;;;;;;;2.00;1.33;;;;;17.07;51.95;100249.94;5054666;28;45275;-68
2023/03/23 11:10:26;;;;;;;;;4.00;2.00;;;;;17.00;51.72;100246.41;5067416;28;45487;-69
2023/03/23 11:12:57;;;;;;;;;4.00;2.33;;;;;17.08;51.85;100247.25;5074136;27;45532;-69
2023/03/23 11:15:37;;;;;;;;;2.67;2.33;;;;;17.08;51.42;100259.84;5074906;28;46581;-70
2023/03/23 11:18:23;;;;;;;;;2.33;2.33;;;;;17.08;51.53;100260.72;5062570;28;45525;-70
2023/03/23 11:20:58;;;;;;;;;4.00;3.67;;;;;17.07;51.66;100256.22;5071045;28;45445;-69
2023/03/23 11:23:34;;;;;;;;;5.33;4.33;;;;;17.06;52.12;100250.84;5066567;28;45431;-69
2023/03/23 11:26:15;;;;;;;;;13.00;6.67;;;;;17.07;51.66;100255.34;5061023;28;45477;-70
2023/03/23 11:28:51;;;;;;;;;4.00;2.00;;;;;17.19;52.32;100243.53;5068090;28;45483;-69
2023/03/23 11:31:24;;;;;;;;;9.00;4.33;;;;;17.17;51.64;100238.16;5058085;28;45504;-71
2023/03/23 11:34:02;;;;;;;;;3.67;2.00;;;;;17.23;51.43;100266.94;5071958;28;45227;-68